PKOJE WAFP-WAFO

Flight info

Callsign PKOJE
Flight time N/A
Altitude 11000
Route DIOLA
Aircraft C172/L-SFG/C

Departure

Time N/A
Airport Kasiguncu Airport (WAFP)

Arrival

Time 2026-04-27 06:32
Airport Maleo Airport (WAFO)
Time Latitude Longitude Altitude Speed Heading
2026-04-27 06:12 -1.93309 121.36955 8339 ft 103 kts 108°
2026-04-27 06:12 -1.93558 121.37630 8338 ft 103 kts 108°
2026-04-27 06:13 -1.93806 121.38305 8334 ft 103 kts 108°
2026-04-27 06:13 -1.94050 121.38964 8335 ft 101 kts 108°
2026-04-27 06:13 -1.94294 121.39625 8334 ft 102 kts 108°
2026-04-27 06:13 -1.94538 121.40284 8334 ft 99 kts 109°
2026-04-27 06:14 -1.94777 121.40933 8343 ft 100 kts 108°
2026-04-27 06:14 -1.95021 121.41594 8342 ft 101 kts 108°
2026-04-27 06:14 -1.95261 121.42241 8341 ft 100 kts 108°
2026-04-27 06:14 -1.95503 121.42898 8343 ft 101 kts 108°
2026-04-27 06:15 -1.95750 121.43561 8345 ft 102 kts 109°
2026-04-27 06:15 -1.95995 121.44227 8345 ft 103 kts 108°
2026-04-27 06:15 -1.96244 121.44901 8338 ft 103 kts 108°
2026-04-27 06:15 -1.96493 121.45574 8340 ft 103 kts 108°
2026-04-27 06:16 -1.96744 121.46254 8339 ft 103 kts 108°
2026-04-27 06:16 -1.96989 121.46916 8337 ft 103 kts 108°
2026-04-27 06:16 -1.97236 121.47585 8341 ft 102 kts 108°
2026-04-27 06:16 -1.97485 121.48257 8345 ft 102 kts 108°
2026-04-27 06:17 -1.97733 121.48928 8343 ft 103 kts 108°
2026-04-27 06:17 -1.97978 121.49591 8341 ft 102 kts 108°
2026-04-27 06:17 -1.98224 121.50261 8343 ft 102 kts 108°
2026-04-27 06:17 -1.98471 121.50930 8340 ft 102 kts 108°
2026-04-27 06:18 -1.98715 121.51590 8341 ft 102 kts 108°
2026-04-27 06:18 -1.98963 121.52262 8322 ft 104 kts 108°
2026-04-27 06:18 -1.99218 121.52946 8238 ft 104 kts 108°
2026-04-27 06:18 -1.99464 121.53612 8160 ft 102 kts 108°
2026-04-27 06:19 -1.99710 121.54278 8081 ft 102 kts 108°
2026-04-27 06:19 -1.99954 121.54939 8005 ft 101 kts 108°
2026-04-27 06:19 -2.00197 121.55597 7918 ft 103 kts 108°
2026-04-27 06:19 -2.00364 121.56046 7823 ft 106 kts 108°
2026-04-27 06:20 -2.00623 121.56750 7681 ft 109 kts 108°
2026-04-27 06:20 -2.00891 121.57473 7537 ft 111 kts 108°
2026-04-27 06:20 -2.01157 121.58196 7392 ft 112 kts 108°
2026-04-27 06:20 -2.01431 121.58934 7244 ft 113 kts 108°
2026-04-27 06:21 -2.01704 121.59670 7071 ft 111 kts 108°
2026-04-27 06:21 -2.01969 121.60388 6888 ft 109 kts 108°
2026-04-27 06:21 -2.02230 121.61094 6709 ft 107 kts 107°
2026-04-27 06:21 -2.02485 121.61785 6532 ft 106 kts 107°
2026-04-27 06:22 -2.02741 121.62479 6353 ft 106 kts 107°
2026-04-27 06:22 -2.02996 121.63175 6180 ft 106 kts 107°
2026-04-27 06:22 -2.03252 121.63865 6006 ft 106 kts 107°
2026-04-27 06:22 -2.03505 121.64550 5834 ft 106 kts 107°
2026-04-27 06:23 -2.03761 121.65245 5660 ft 106 kts 107°
2026-04-27 06:23 -2.04016 121.65934 5484 ft 105 kts 107°
2026-04-27 06:23 -2.04272 121.66626 5302 ft 106 kts 108°
2026-04-27 06:23 -2.04524 121.67309 5134 ft 105 kts 108°
2026-04-27 06:24 -2.04777 121.67994 4955 ft 105 kts 108°
2026-04-27 06:24 -2.05032 121.68675 4780 ft 105 kts 108°
2026-04-27 06:24 -2.05289 121.69359 4606 ft 105 kts 108°
2026-04-27 06:24 -2.05703 121.69953 4389 ft 109 kts 146°
2026-04-27 06:25 -2.06336 121.70346 4144 ft 106 kts 143°
2026-04-27 06:25 -2.06936 121.70738 3879 ft 100 kts 143°
2026-04-27 06:25 -2.07501 121.71112 3618 ft 95 kts 143°
2026-04-27 06:25 -2.08043 121.71472 3359 ft 92 kts 143°
2026-04-27 06:26 -2.08574 121.71827 3106 ft 91 kts 144°
2026-04-27 06:26 -2.09096 121.72176 2853 ft 89 kts 144°
2026-04-27 06:26 -2.09599 121.72513 2659 ft 83 kts 143°
2026-04-27 06:26 -2.10070 121.72832 2575 ft 82 kts 143°
2026-04-27 06:27 -2.10549 121.73142 2495 ft 82 kts 145°
2026-04-27 06:27 -2.11037 121.73441 2422 ft 81 kts 146°
2026-04-27 06:27 -2.11534 121.73749 2270 ft 87 kts 141°
2026-04-27 06:27 -2.12044 121.74121 2052 ft 92 kts 142°
2026-04-27 06:28 -2.12565 121.74472 1843 ft 89 kts 148°
2026-04-27 06:28 -2.13086 121.74366 1757 ft 84 kts 233°
2026-04-27 06:28 -2.13480 121.73943 1807 ft 92 kts 231°
2026-04-27 06:28 -2.13851 121.73426 1741 ft 93 kts 230°
2026-04-27 06:29 -2.14254 121.72906 1679 ft 95 kts 230°
2026-04-27 06:29 -2.14673 121.72413 1609 ft 93 kts 225°
2026-04-27 06:29 -2.15116 121.71933 1501 ft 96 kts 227°
2026-04-27 06:29 -2.15535 121.71433 1442 ft 84 kts 229°
2026-04-27 06:30 -2.15919 121.71001 1325 ft 81 kts 225°
2026-04-27 06:30 -2.16302 121.70578 1212 ft 86 kts 227°
2026-04-27 06:30 -2.16697 121.70131 1116 ft 86 kts 226°
2026-04-27 06:30 -2.17093 121.69683 948 ft 85 kts 226°
2026-04-27 06:31 -2.17488 121.69256 762 ft 82 kts 225°
2026-04-27 06:31 -2.17881 121.68845 624 ft 77 kts 226°
2026-04-27 06:31 -2.18216 121.68431 527 ft 82 kts 229°
2026-04-27 06:31 -2.18594 121.68002 415 ft 81 kts 227°
2026-04-27 06:32 -2.18957 121.67577 295 ft 81 kts 227°
2026-04-27 06:32 -2.19340 121.67157 137 ft 82 kts 228°
2026-04-27 06:32 -2.19705 121.66746 31 ft 72 kts 228°
2026-04-27 06:32 -2.19963 121.66457 22 ft 45 kts 229°
2026-04-27 06:33 -2.20073 121.66344 23 ft 12 kts 180°
2026-04-27 06:33 -2.20142 121.66398 20 ft 13 kts 141°
2026-04-27 06:33 -2.20201 121.66451 20 ft 8 kts 137°
2026-04-27 06:33 -2.20242 121.66438 20 ft 6 kts 211°
2026-04-27 06:34 -2.20268 121.66457 20 ft 4 kts 141°
2026-04-27 06:34 -2.20285 121.66472 20 ft 1 kts 139°
2026-04-27 06:34 -2.20286 121.66472 20 ft 0 kts 139°